OEKJ

Al Kharj AB

Al Kharj, Saudi Arabia
TAF OEKJ 191100Z 1912/2018 03013KT 7000 NSC TEMPO 1912/1920 4000 DU BECMG 1918/1920 VRB03KT
Issued Valid From Valid To
Jan-19 @ 11:00 UTC
(6 hours ago)
Jan-19 @ 12:00 UTC
(5 hours ago)
Jan-20 @ 18:00 UTC
(-1 days ago)
Jan-19 @ 12:00 to Jan-19 @ 18:00
TAF OEKJ 191100Z 1912/2018 03013KT 7000 NSC
Wind Visibility Clouds
30° at 13 knots 7,001 meters
  • No significant clouds
Temporary Jan-19 @ 12:00 to Jan-19 @ 20:00
TEMPO 1912/1920 4000 DU
Visibility Conditions
4,007 meters
  • Dust
Becoming Jan-19 @ 18:00 to Jan-20 @ 18:00
BECMG 1918/1920 VRB03KT
Wind Visibility Clouds
Variable at 3 knots 7,001 meters
  • No significant clouds
TAF OEKJ 191100Z 1912/2018 03013KT 7000 NSC TEMPO 1912/1920 4000 DU BECMG 1918/1920 VRB03KT
Issued Jan-19 @ 11:00 UTC
(6 hours ago)
Valid From Jan-19 @ 12:00 UTC
(5 hours ago)
Valid To Jan-20 @ 18:00 UTC
(-1 days ago)
Jan-19 @ 12:00 - Jan-19 @ 18:00
Wind Visibility
30° at 13 knots 7,001 meters
Clouds
  • No significant clouds
Temporary Jan-19 @ 12:00 - Jan-19 @ 20:00
Conditions
  • Dust
Becoming Jan-19 @ 18:00 - Jan-20 @ 18:00
Wind Visibility
Variable at 3 knots 7,001 meters
Clouds
  • No significant clouds